sensor_id;sensor_type;location;lat;lon;timestamp;P1;durP1;ratioP1;P2;durP2;ratioP2
10554;SDS011;5326;51.522;7.388;2022-10-16T00:01:53;5.87;;;3.13;;
10554;SDS011;5326;51.522;7.388;2022-10-16T00:04:19;7.53;;;3.13;;
10554;SDS011;5326;51.522;7.388;2022-10-16T00:06:46;5.20;;;3.20;;
10554;SDS011;5326;51.522;7.388;2022-10-16T00:09:12;4.27;;;2.80;;
10554;SDS011;5326;51.522;7.388;2022-10-16T00:11:39;5.10;;;3.03;;
10554;SDS011;5326;51.522;7.388;2022-10-16T00:14:07;5.97;;;2.93;;
10554;SDS011;5326;51.522;7.388;2022-10-16T00:16:38;6.90;;;3.23;;
10554;SDS011;5326;51.522;7.388;2022-10-16T00:19:05;5.50;;;2.80;;
10554;SDS011;5326;51.522;7.388;2022-10-16T00:21:33;8.77;;;4.30;;
10554;SDS011;5326;51.522;7.388;2022-10-16T00:24:04;11.83;;;6.10;;
10554;SDS011;5326;51.522;7.388;2022-10-16T00:26:33;10.07;;;4.07;;
10554;SDS011;5326;51.522;7.388;2022-10-16T00:29:00;5.87;;;3.73;;
10554;SDS011;5326;51.522;7.388;2022-10-16T00:31:27;5.67;;;3.40;;
10554;SDS011;5326;51.522;7.388;2022-10-16T00:33:54;7.90;;;3.20;;
10554;SDS011;5326;51.522;7.388;2022-10-16T00:36:21;8.07;;;3.90;;
10554;SDS011;5326;51.522;7.388;2022-10-16T00:38:52;7.33;;;3.40;;
10554;SDS011;5326;51.522;7.388;2022-10-16T00:41:21;4.53;;;3.30;;
10554;SDS011;5326;51.522;7.388;2022-10-16T00:43:50;4.53;;;2.70;;
10554;SDS011;5326;51.522;7.388;2022-10-16T00:48:57;6.77;;;2.80;;
10554;SDS011;5326;51.522;7.388;2022-10-16T00:51:30;4.73;;;2.70;;
10554;SDS011;5326;51.522;7.388;2022-10-16T00:53:59;5.80;;;2.90;;
10554;SDS011;5326;51.522;7.388;2022-10-16T00:56:26;6.87;;;2.77;;
10554;SDS011;5326;51.522;7.388;2022-10-16T00:58:53;5.27;;;2.43;;
10554;SDS011;5326;51.522;7.388;2022-10-16T01:01:19;6.43;;;2.57;;
10554;SDS011;5326;51.522;7.388;2022-10-16T01:03:46;5.47;;;2.40;;
10554;SDS011;5326;51.522;7.388;2022-10-16T01:06:23;5.57;;;2.70;;
10554;SDS011;5326;51.522;7.388;2022-10-16T01:09:11;5.10;;;2.47;;
10554;SDS011;5326;51.522;7.388;2022-10-16T01:11:50;2.77;;;2.10;;
10554;SDS011;5326;51.522;7.388;2022-10-16T01:17:28;4.20;;;2.83;;
10554;SDS011;5326;51.522;7.388;2022-10-16T01:29:13;6.30;;;2.60;;
10554;SDS011;5326;51.522;7.388;2022-10-16T01:31:47;3.80;;;2.63;;
10554;SDS011;5326;51.522;7.388;2022-10-16T01:34:17;4.93;;;2.80;;
10554;SDS011;5326;51.522;7.388;2022-10-16T01:36:47;3.30;;;2.40;;
10554;SDS011;5326;51.522;7.388;2022-10-16T01:39:18;4.90;;;2.60;;
10554;SDS011;5326;51.522;7.388;2022-10-16T01:41:55;3.73;;;2.10;;
10554;SDS011;5326;51.522;7.388;2022-10-16T01:44:28;2.87;;;2.30;;
10554;SDS011;5326;51.522;7.388;2022-10-16T01:46:56;4.63;;;2.77;;
10554;SDS011;5326;51.522;7.388;2022-10-16T01:49:23;3.57;;;2.40;;
10554;SDS011;5326;51.522;7.388;2022-10-16T01:51:53;6.43;;;2.67;;
10554;SDS011;5326;51.522;7.388;2022-10-16T01:54:23;6.03;;;2.60;;
10554;SDS011;5326;51.522;7.388;2022-10-16T01:56:55;6.50;;;2.20;;
10554;SDS011;5326;51.522;7.388;2022-10-16T01:59:23;6.40;;;2.40;;
10554;SDS011;5326;51.522;7.388;2022-10-16T02:01:53;4.30;;;2.63;;
10554;SDS011;5326;51.522;7.388;2022-10-16T02:06:57;7.50;;;2.57;;
10554;SDS011;5326;51.522;7.388;2022-10-16T02:09:23;5.57;;;2.40;;
10554;SDS011;5326;51.522;7.388;2022-10-16T02:11:51;3.27;;;2.13;;
10554;SDS011;5326;51.522;7.388;2022-10-16T02:14:20;4.53;;;2.37;;
10554;SDS011;5326;51.522;7.388;2022-10-16T02:16:48;4.30;;;2.50;;
10554;SDS011;5326;51.522;7.388;2022-10-16T02:19:15;7.13;;;2.20;;
10554;SDS011;5326;51.522;7.388;2022-10-16T02:21:44;4.03;;;2.00;;
10554;SDS011;5326;51.522;7.388;2022-10-16T02:29:35;5.73;;;2.00;;
10554;SDS011;5326;51.522;7.388;2022-10-16T02:32:05;4.37;;;2.20;;
10554;SDS011;5326;51.522;7.388;2022-10-16T02:34:33;3.67;;;1.70;;
10554;SDS011;5326;51.522;7.388;2022-10-16T02:37:01;3.13;;;1.70;;
10554;SDS011;5326;51.522;7.388;2022-10-16T02:39:28;4.10;;;1.70;;
10554;SDS011;5326;51.522;7.388;2022-10-16T02:41:55;2.07;;;1.50;;
10554;SDS011;5326;51.522;7.388;2022-10-16T02:44:21;3.77;;;1.90;;
10554;SDS011;5326;51.522;7.388;2022-10-16T02:46:48;3.40;;;1.73;;
10554;SDS011;5326;51.522;7.388;2022-10-16T02:49:14;1.83;;;1.50;;
10554;SDS011;5326;51.522;7.388;2022-10-16T02:51:41;2.60;;;1.70;;
10554;SDS011;5326;51.522;7.388;2022-10-16T02:54:08;3.67;;;1.70;;
10554;SDS011;5326;51.522;7.388;2022-10-16T02:56:34;2.77;;;2.00;;
10554;SDS011;5326;51.522;7.388;2022-10-16T02:59:01;6.43;;;1.83;;
10554;SDS011;5326;51.522;7.388;2022-10-16T03:01:27;3.77;;;1.70;;
10554;SDS011;5326;51.522;7.388;2022-10-16T03:03:54;3.57;;;1.60;;
10554;SDS011;5326;51.522;7.388;2022-10-16T03:06:20;2.97;;;1.70;;
10554;SDS011;5326;51.522;7.388;2022-10-16T03:08:47;2.90;;;1.53;;
10554;SDS011;5326;51.522;7.388;2022-10-16T03:11:14;3.43;;;1.50;;
10554;SDS011;5326;51.522;7.388;2022-10-16T03:13:40;3.43;;;1.60;;
10554;SDS011;5326;51.522;7.388;2022-10-16T03:16:07;4.97;;;1.90;;
10554;SDS011;5326;51.522;7.388;2022-10-16T03:18:34;5.90;;;1.50;;
10554;SDS011;5326;51.522;7.388;2022-10-16T03:21:00;3.93;;;1.93;;
10554;SDS011;5326;51.522;7.388;2022-10-16T03:23:27;3.90;;;1.53;;
10554;SDS011;5326;51.522;7.388;2022-10-16T03:25:53;3.83;;;1.53;;
10554;SDS011;5326;51.522;7.388;2022-10-16T03:28:20;3.77;;;1.60;;
10554;SDS011;5326;51.522;7.388;2022-10-16T03:30:46;5.13;;;1.50;;
10554;SDS011;5326;51.522;7.388;2022-10-16T03:33:13;1.93;;;1.50;;
10554;SDS011;5326;51.522;7.388;2022-10-16T03:35:39;3.07;;;1.50;;
10554;SDS011;5326;51.522;7.388;2022-10-16T03:38:06;2.93;;;1.73;;
10554;SDS011;5326;51.522;7.388;2022-10-16T03:40:32;1.70;;;1.20;;
10554;SDS011;5326;51.522;7.388;2022-10-16T03:42:59;1.53;;;1.37;;
10554;SDS011;5326;51.522;7.388;2022-10-16T03:45:25;3.53;;;1.50;;
10554;SDS011;5326;51.522;7.388;2022-10-16T03:47:53;4.07;;;1.60;;
10554;SDS011;5326;51.522;7.388;2022-10-16T03:50:19;2.20;;;1.70;;
10554;SDS011;5326;51.522;7.388;2022-10-16T03:52:46;3.27;;;1.50;;
10554;SDS011;5326;51.522;7.388;2022-10-16T03:55:12;1.93;;;1.47;;
10554;SDS011;5326;51.522;7.388;2022-10-16T03:57:39;2.30;;;1.60;;
10554;SDS011;5326;51.522;7.388;2022-10-16T04:00:06;4.00;;;1.50;;
10554;SDS011;5326;51.522;7.388;2022-10-16T04:02:33;3.03;;;1.47;;
10554;SDS011;5326;51.522;7.388;2022-10-16T04:04:59;3.00;;;1.40;;
10554;SDS011;5326;51.522;7.388;2022-10-16T04:07:26;4.57;;;1.50;;
10554;SDS011;5326;51.522;7.388;2022-10-16T04:09:53;2.70;;;1.50;;
10554;SDS011;5326;51.522;7.388;2022-10-16T04:12:19;4.00;;;1.43;;
10554;SDS011;5326;51.522;7.388;2022-10-16T04:14:46;1.53;;;1.43;;
10554;SDS011;5326;51.522;7.388;2022-10-16T04:17:12;2.73;;;1.53;;
10554;SDS011;5326;51.522;7.388;2022-10-16T04:19:39;1.73;;;1.20;;
10554;SDS011;5326;51.522;7.388;2022-10-16T04:22:05;1.20;;;1.20;;
10554;SDS011;5326;51.522;7.388;2022-10-16T04:24:32;2.30;;;1.70;;
10554;SDS011;5326;51.522;7.388;2022-10-16T04:26:59;5.43;;;1.50;;
10554;SDS011;5326;51.522;7.388;2022-10-16T04:29:25;2.10;;;1.30;;
10554;SDS011;5326;51.522;7.388;2022-10-16T04:31:52;2.40;;;1.53;;
10554;SDS011;5326;51.522;7.388;2022-10-16T04:34:18;2.03;;;1.50;;
10554;SDS011;5326;51.522;7.388;2022-10-16T04:36:48;5.60;;;1.70;;
10554;SDS011;5326;51.522;7.388;2022-10-16T04:39:17;1.97;;;1.53;;
10554;SDS011;5326;51.522;7.388;2022-10-16T04:41:44;1.60;;;1.37;;
10554;SDS011;5326;51.522;7.388;2022-10-16T04:44:10;1.43;;;1.33;;
10554;SDS011;5326;51.522;7.388;2022-10-16T04:46:37;3.57;;;1.70;;
10554;SDS011;5326;51.522;7.388;2022-10-16T04:49:04;1.57;;;1.30;;
10554;SDS011;5326;51.522;7.388;2022-10-16T04:51:30;1.57;;;1.23;;
10554;SDS011;5326;51.522;7.388;2022-10-16T04:53:57;1.87;;;1.33;;
10554;SDS011;5326;51.522;7.388;2022-10-16T04:56:24;2.13;;;1.30;;
10554;SDS011;5326;51.522;7.388;2022-10-16T04:58:50;2.40;;;1.30;;
10554;SDS011;5326;51.522;7.388;2022-10-16T05:01:17;1.80;;;1.47;;
10554;SDS011;5326;51.522;7.388;2022-10-16T05:03:44;1.70;;;1.50;;
10554;SDS011;5326;51.522;7.388;2022-10-16T05:06:10;3.50;;;1.50;;
10554;SDS011;5326;51.522;7.388;2022-10-16T05:08:37;4.97;;;1.80;;
10554;SDS011;5326;51.522;7.388;2022-10-16T05:11:03;1.57;;;1.47;;
10554;SDS011;5326;51.522;7.388;2022-10-16T05:13:30;2.60;;;1.40;;
10554;SDS011;5326;51.522;7.388;2022-10-16T05:15:56;2.43;;;1.43;;
10554;SDS011;5326;51.522;7.388;2022-10-16T05:18:23;1.50;;;1.40;;
10554;SDS011;5326;51.522;7.388;2022-10-16T05:20:49;1.83;;;1.50;;
10554;SDS011;5326;51.522;7.388;2022-10-16T05:23:16;1.67;;;1.23;;
10554;SDS011;5326;51.522;7.388;2022-10-16T05:25:42;1.87;;;1.40;;
10554;SDS011;5326;51.522;7.388;2022-10-16T05:28:09;3.00;;;1.40;;
10554;SDS011;5326;51.522;7.388;2022-10-16T05:30:36;2.30;;;1.43;;
10554;SDS011;5326;51.522;7.388;2022-10-16T05:33:03;1.77;;;1.33;;
10554;SDS011;5326;51.522;7.388;2022-10-16T05:35:30;2.57;;;1.30;;
10554;SDS011;5326;51.522;7.388;2022-10-16T05:37:57;4.13;;;1.10;;
10554;SDS011;5326;51.522;7.388;2022-10-16T05:40:23;3.60;;;1.57;;
10554;SDS011;5326;51.522;7.388;2022-10-16T05:42:54;2.10;;;1.30;;
10554;SDS011;5326;51.522;7.388;2022-10-16T05:45:21;2.13;;;1.37;;
10554;SDS011;5326;51.522;7.388;2022-10-16T05:47:47;2.93;;;1.40;;
10554;SDS011;5326;51.522;7.388;2022-10-16T05:50:14;4.97;;;1.50;;
10554;SDS011;5326;51.522;7.388;2022-10-16T05:52:40;1.47;;;1.33;;
10554;SDS011;5326;51.522;7.388;2022-10-16T05:55:07;4.50;;;2.00;;
10554;SDS011;5326;51.522;7.388;2022-10-16T05:57:34;1.67;;;1.40;;
10554;SDS011;5326;51.522;7.388;2022-10-16T06:00:00;1.43;;;1.33;;
10554;SDS011;5326;51.522;7.388;2022-10-16T06:02:27;2.35;;;1.30;;
10554;SDS011;5326;51.522;7.388;2022-10-16T06:04:53;1.50;;;1.37;;
10554;SDS011;5326;51.522;7.388;2022-10-16T06:07:20;1.93;;;1.40;;
10554;SDS011;5326;51.522;7.388;2022-10-16T06:09:50;3.57;;;1.50;;
10554;SDS011;5326;51.522;7.388;2022-10-16T06:12:19;3.60;;;1.47;;
10554;SDS011;5326;51.522;7.388;2022-10-16T06:14:46;3.40;;;1.53;;
10554;SDS011;5326;51.522;7.388;2022-10-16T06:17:13;4.93;;;1.53;;
10554;SDS011;5326;51.522;7.388;2022-10-16T06:19:40;3.57;;;1.77;;
10554;SDS011;5326;51.522;7.388;2022-10-16T06:22:07;5.33;;;1.50;;
10554;SDS011;5326;51.522;7.388;2022-10-16T06:24:33;2.17;;;1.40;;
10554;SDS011;5326;51.522;7.388;2022-10-16T06:27:00;13.07;;;2.07;;
10554;SDS011;5326;51.522;7.388;2022-10-16T06:29:26;6.67;;;1.70;;
10554;SDS011;5326;51.522;7.388;2022-10-16T06:31:53;3.47;;;1.30;;
10554;SDS011;5326;51.522;7.388;2022-10-16T06:34:19;2.93;;;1.70;;
10554;SDS011;5326;51.522;7.388;2022-10-16T06:36:46;3.13;;;1.60;;
10554;SDS011;5326;51.522;7.388;2022-10-16T06:39:12;2.13;;;1.60;;
10554;SDS011;5326;51.522;7.388;2022-10-16T06:41:39;3.77;;;1.90;;
10554;SDS011;5326;51.522;7.388;2022-10-16T06:44:06;5.07;;;1.50;;
10554;SDS011;5326;51.522;7.388;2022-10-16T06:46:33;1.60;;;1.40;;
10554;SDS011;5326;51.522;7.388;2022-10-16T06:49:00;5.20;;;1.50;;
10554;SDS011;5326;51.522;7.388;2022-10-16T06:51:26;3.03;;;1.40;;
10554;SDS011;5326;51.522;7.388;2022-10-16T06:53:53;4.07;;;1.53;;
10554;SDS011;5326;51.522;7.388;2022-10-16T06:56:30;4.40;;;1.70;;
10554;SDS011;5326;51.522;7.388;2022-10-16T06:58:58;1.30;;;1.17;;
10554;SDS011;5326;51.522;7.388;2022-10-16T07:01:25;2.27;;;1.63;;
10554;SDS011;5326;51.522;7.388;2022-10-16T07:03:52;5.20;;;1.80;;
10554;SDS011;5326;51.522;7.388;2022-10-16T07:06:19;5.30;;;1.43;;
10554;SDS011;5326;51.522;7.388;2022-10-16T07:08:47;3.10;;;1.23;;
10554;SDS011;5326;51.522;7.388;2022-10-16T07:11:15;4.43;;;1.60;;
10554;SDS011;5326;51.522;7.388;2022-10-16T07:13:43;8.93;;;1.80;;
10554;SDS011;5326;51.522;7.388;2022-10-16T07:16:20;6.60;;;1.87;;
10554;SDS011;5326;51.522;7.388;2022-10-16T07:18:48;1.87;;;1.63;;
10554;SDS011;5326;51.522;7.388;2022-10-16T07:21:16;3.80;;;1.53;;
10554;SDS011;5326;51.522;7.388;2022-10-16T07:23:45;2.93;;;1.60;;
10554;SDS011;5326;51.522;7.388;2022-10-16T07:26:16;8.10;;;1.73;;
10554;SDS011;5326;51.522;7.388;2022-10-16T07:28:42;2.63;;;1.40;;
10554;SDS011;5326;51.522;7.388;2022-10-16T07:31:10;3.33;;;1.50;;
10554;SDS011;5326;51.522;7.388;2022-10-16T07:33:39;3.80;;;1.30;;
10554;SDS011;5326;51.522;7.388;2022-10-16T07:36:08;2.17;;;1.30;;
10554;SDS011;5326;51.522;7.388;2022-10-16T07:38:41;1.37;;;1.27;;
10554;SDS011;5326;51.522;7.388;2022-10-16T07:41:09;4.00;;;1.37;;
10554;SDS011;5326;51.522;7.388;2022-10-16T07:43:40;2.43;;;1.10;;
10554;SDS011;5326;51.522;7.388;2022-10-16T07:46:14;1.70;;;1.30;;
10554;SDS011;5326;51.522;7.388;2022-10-16T07:48:42;2.57;;;1.30;;
10554;SDS011;5326;51.522;7.388;2022-10-16T07:51:13;2.90;;;1.47;;
10554;SDS011;5326;51.522;7.388;2022-10-16T07:53:41;3.07;;;1.40;;
10554;SDS011;5326;51.522;7.388;2022-10-16T07:56:08;5.33;;;1.70;;
10554;SDS011;5326;51.522;7.388;2022-10-16T07:58:35;5.13;;;1.70;;
10554;SDS011;5326;51.522;7.388;2022-10-16T08:01:05;5.43;;;1.70;;
10554;SDS011;5326;51.522;7.388;2022-10-16T08:03:33;3.97;;;2.00;;
10554;SDS011;5326;51.522;7.388;2022-10-16T08:06:00;1.70;;;1.30;;
10554;SDS011;5326;51.522;7.388;2022-10-16T08:08:27;2.90;;;1.40;;
10554;SDS011;5326;51.522;7.388;2022-10-16T08:10:54;2.03;;;1.43;;
10554;SDS011;5326;51.522;7.388;2022-10-16T08:13:21;3.30;;;1.70;;
10554;SDS011;5326;51.522;7.388;2022-10-16T08:15:47;3.13;;;1.50;;
10554;SDS011;5326;51.522;7.388;2022-10-16T08:18:14;3.63;;;1.73;;
10554;SDS011;5326;51.522;7.388;2022-10-16T08:20:41;4.70;;;1.60;;
10554;SDS011;5326;51.522;7.388;2022-10-16T08:23:09;4.57;;;1.50;;
10554;SDS011;5326;51.522;7.388;2022-10-16T08:25:36;2.80;;;1.50;;
10554;SDS011;5326;51.522;7.388;2022-10-16T08:28:06;9.47;;;3.10;;
10554;SDS011;5326;51.522;7.388;2022-10-16T08:30:34;5.37;;;2.40;;
10554;SDS011;5326;51.522;7.388;2022-10-16T08:33:01;3.13;;;1.47;;
10554;SDS011;5326;51.522;7.388;2022-10-16T08:35:28;1.90;;;1.43;;
10554;SDS011;5326;51.522;7.388;2022-10-16T08:37:55;2.57;;;1.50;;
10554;SDS011;5326;51.522;7.388;2022-10-16T08:40:23;5.70;;;1.67;;
10554;SDS011;5326;51.522;7.388;2022-10-16T08:48:17;4.97;;;2.00;;
10554;SDS011;5326;51.522;7.388;2022-10-16T08:50:47;3.70;;;1.70;;
10554;SDS011;5326;51.522;7.388;2022-10-16T08:53:15;5.57;;;1.30;;
10554;SDS011;5326;51.522;7.388;2022-10-16T08:55:46;4.10;;;1.40;;
10554;SDS011;5326;51.522;7.388;2022-10-16T08:58:23;5.87;;;1.17;;
10554;SDS011;5326;51.522;7.388;2022-10-16T09:00:54;2.70;;;1.20;;
10554;SDS011;5326;51.522;7.388;2022-10-16T09:09:22;2.70;;;1.20;;
10554;SDS011;5326;51.522;7.388;2022-10-16T09:20:17;2.83;;;2.10;;
10554;SDS011;5326;51.522;7.388;2022-10-16T09:22:45;8.23;;;4.53;;
10554;SDS011;5326;51.522;7.388;2022-10-16T09:25:13;5.20;;;1.30;;
10554;SDS011;5326;51.522;7.388;2022-10-16T09:27:42;3.90;;;1.20;;
10554;SDS011;5326;51.522;7.388;2022-10-16T09:30:15;2.87;;;1.47;;
10554;SDS011;5326;51.522;7.388;2022-10-16T09:32:43;2.30;;;0.97;;
10554;SDS011;5326;51.522;7.388;2022-10-16T09:35:15;5.63;;;1.37;;
10554;SDS011;5326;51.522;7.388;2022-10-16T09:37:44;4.53;;;1.53;;
10554;SDS011;5326;51.522;7.388;2022-10-16T09:40:12;4.37;;;1.37;;
10554;SDS011;5326;51.522;7.388;2022-10-16T09:42:40;5.43;;;1.33;;
10554;SDS011;5326;51.522;7.388;2022-10-16T09:45:19;2.50;;;1.17;;
10554;SDS011;5326;51.522;7.388;2022-10-16T09:47:47;4.17;;;1.70;;
10554;SDS011;5326;51.522;7.388;2022-10-16T09:50:20;3.83;;;1.30;;
10554;SDS011;5326;51.522;7.388;2022-10-16T09:53:11;4.17;;;1.03;;
10554;SDS011;5326;51.522;7.388;2022-10-16T09:55:49;4.03;;;2.17;;
10554;SDS011;5326;51.522;7.388;2022-10-16T09:58:16;3.17;;;1.30;;
10554;SDS011;5326;51.522;7.388;2022-10-16T10:00:53;2.10;;;1.10;;
10554;SDS011;5326;51.522;7.388;2022-10-16T10:03:27;3.20;;;1.20;;
10554;SDS011;5326;51.522;7.388;2022-10-16T10:05:56;3.80;;;1.40;;
10554;SDS011;5326;51.522;7.388;2022-10-16T10:08:27;3.97;;;1.47;;
10554;SDS011;5326;51.522;7.388;2022-10-16T10:10:53;1.77;;;1.23;;
10554;SDS011;5326;51.522;7.388;2022-10-16T10:13:22;2.80;;;1.00;;
10554;SDS011;5326;51.522;7.388;2022-10-16T10:15:49;5.57;;;1.47;;
10554;SDS011;5326;51.522;7.388;2022-10-16T10:18:17;6.00;;;1.70;;
10554;SDS011;5326;51.522;7.388;2022-10-16T10:20:46;2.73;;;1.20;;
10554;SDS011;5326;51.522;7.388;2022-10-16T10:23:24;4.00;;;1.17;;
10554;SDS011;5326;51.522;7.388;2022-10-16T10:31:03;3.37;;;1.10;;
10554;SDS011;5326;51.522;7.388;2022-10-16T10:39:06;3.40;;;1.30;;
10554;SDS011;5326;51.522;7.388;2022-10-16T10:53:02;4.10;;;1.23;;
10554;SDS011;5326;51.522;7.388;2022-10-16T11:06:44;3.07;;;1.13;;
10554;SDS011;5326;51.522;7.388;2022-10-16T11:12:17;2.07;;;0.90;;
10554;SDS011;5326;51.522;7.388;2022-10-16T11:17:44;3.13;;;1.00;;
10554;SDS011;5326;51.522;7.388;2022-10-16T11:20:16;1.90;;;1.00;;
10554;SDS011;5326;51.522;7.388;2022-10-16T11:22:47;20.30;;;15.37;;
10554;SDS011;5326;51.522;7.388;2022-10-16T11:28:07;9.13;;;2.87;;
10554;SDS011;5326;51.522;7.388;2022-10-16T11:38:14;2.47;;;0.87;;
10554;SDS011;5326;51.522;7.388;2022-10-16T11:40:46;3.83;;;1.07;;
10554;SDS011;5326;51.522;7.388;2022-10-16T11:43:16;4.90;;;0.93;;
10554;SDS011;5326;51.522;7.388;2022-10-16T11:45:49;4.13;;;1.03;;
10554;SDS011;5326;51.522;7.388;2022-10-16T11:48:41;4.70;;;1.17;;
10554;SDS011;5326;51.522;7.388;2022-10-16T11:56:18;4.77;;;1.10;;
10554;SDS011;5326;51.522;7.388;2022-10-16T11:59:00;1.27;;;0.83;;
10554;SDS011;5326;51.522;7.388;2022-10-16T12:01:33;5.70;;;2.90;;
10554;SDS011;5326;51.522;7.388;2022-10-16T12:04:16;2.27;;;1.00;;
10554;SDS011;5326;51.522;7.388;2022-10-16T12:06:44;3.37;;;1.37;;
10554;SDS011;5326;51.522;7.388;2022-10-16T12:09:25;3.50;;;1.00;;
10554;SDS011;5326;51.522;7.388;2022-10-16T12:11:54;1.93;;;0.93;;
10554;SDS011;5326;51.522;7.388;2022-10-16T12:14:32;2.07;;;1.00;;
10554;SDS011;5326;51.522;7.388;2022-10-16T12:20:32;1.03;;;0.90;;
10554;SDS011;5326;51.522;7.388;2022-10-16T12:22:55;3.40;;;1.10;;
10554;SDS011;5326;51.522;7.388;2022-10-16T12:25:30;2.93;;;0.80;;
10554;SDS011;5326;51.522;7.388;2022-10-16T12:28:01;1.57;;;1.00;;
10554;SDS011;5326;51.522;7.388;2022-10-16T12:30:31;4.93;;;1.23;;
10554;SDS011;5326;51.522;7.388;2022-10-16T12:33:02;2.13;;;1.00;;
10554;SDS011;5326;51.522;7.388;2022-10-16T12:35:32;4.13;;;1.10;;
10554;SDS011;5326;51.522;7.388;2022-10-16T12:38:07;10.77;;;7.00;;
10554;SDS011;5326;51.522;7.388;2022-10-16T12:40:46;3.73;;;2.60;;
10554;SDS011;5326;51.522;7.388;2022-10-16T12:46:00;3.23;;;1.13;;
10554;SDS011;5326;51.522;7.388;2022-10-16T12:48:31;3.03;;;1.30;;
10554;SDS011;5326;51.522;7.388;2022-10-16T12:54:00;5.43;;;1.13;;
10554;SDS011;5326;51.522;7.388;2022-10-16T13:24:16;4.13;;;1.10;;
10554;SDS011;5326;51.522;7.388;2022-10-16T13:26:58;2.13;;;1.00;;
10554;SDS011;5326;51.522;7.388;2022-10-16T13:29:53;5.13;;;1.10;;
10554;SDS011;5326;51.522;7.388;2022-10-16T13:32:21;1.93;;;1.20;;
10554;SDS011;5326;51.522;7.388;2022-10-16T13:34:48;3.07;;;0.93;;
10554;SDS011;5326;51.522;7.388;2022-10-16T13:37:16;3.60;;;1.27;;
10554;SDS011;5326;51.522;7.388;2022-10-16T13:39:44;2.27;;;1.10;;
10554;SDS011;5326;51.522;7.388;2022-10-16T13:42:24;1.70;;;1.07;;
10554;SDS011;5326;51.522;7.388;2022-10-16T13:44:54;1.50;;;1.03;;
10554;SDS011;5326;51.522;7.388;2022-10-16T13:47:26;1.73;;;1.10;;
10554;SDS011;5326;51.522;7.388;2022-10-16T13:50:38;3.40;;;1.00;;
10554;SDS011;5326;51.522;7.388;2022-10-16T13:52:45;2.67;;;1.07;;
10554;SDS011;5326;51.522;7.388;2022-10-16T13:55:12;3.93;;;1.93;;
10554;SDS011;5326;51.522;7.388;2022-10-16T13:57:43;6.03;;;4.80;;
10554;SDS011;5326;51.522;7.388;2022-10-16T14:00:51;3.17;;;1.47;;
10554;SDS011;5326;51.522;7.388;2022-10-16T14:03:13;2.47;;;1.00;;
10554;SDS011;5326;51.522;7.388;2022-10-16T14:05:43;2.53;;;1.00;;
10554;SDS011;5326;51.522;7.388;2022-10-16T14:08:13;1.47;;;1.13;;
10554;SDS011;5326;51.522;7.388;2022-10-16T14:10:39;3.30;;;1.20;;
10554;SDS011;5326;51.522;7.388;2022-10-16T14:13:06;4.83;;;1.23;;
10554;SDS011;5326;51.522;7.388;2022-10-16T14:15:35;2.10;;;1.40;;
10554;SDS011;5326;51.522;7.388;2022-10-16T14:18:02;2.77;;;1.40;;
10554;SDS011;5326;51.522;7.388;2022-10-16T14:20:33;2.50;;;1.00;;
10554;SDS011;5326;51.522;7.388;2022-10-16T14:23:02;3.20;;;1.40;;
10554;SDS011;5326;51.522;7.388;2022-10-16T14:25:30;1.07;;;0.97;;
10554;SDS011;5326;51.522;7.388;2022-10-16T14:27:59;2.03;;;1.03;;
10554;SDS011;5326;51.522;7.388;2022-10-16T14:30:27;1.93;;;1.17;;
10554;SDS011;5326;51.522;7.388;2022-10-16T14:32:55;2.40;;;1.20;;
10554;SDS011;5326;51.522;7.388;2022-10-16T14:35:33;3.50;;;1.00;;
10554;SDS011;5326;51.522;7.388;2022-10-16T14:38:01;2.67;;;1.03;;
10554;SDS011;5326;51.522;7.388;2022-10-16T14:40:30;3.23;;;1.13;;
10554;SDS011;5326;51.522;7.388;2022-10-16T14:42:58;2.63;;;1.20;;
10554;SDS011;5326;51.522;7.388;2022-10-16T14:45:27;4.10;;;1.10;;
10554;SDS011;5326;51.522;7.388;2022-10-16T14:47:59;1.30;;;1.07;;
10554;SDS011;5326;51.522;7.388;2022-10-16T14:50:31;2.63;;;1.37;;
10554;SDS011;5326;51.522;7.388;2022-10-16T14:52:58;3.87;;;1.53;;
10554;SDS011;5326;51.522;7.388;2022-10-16T14:55:25;4.03;;;2.73;;
10554;SDS011;5326;51.522;7.388;2022-10-16T14:57:51;8.03;;;4.70;;
10554;SDS011;5326;51.522;7.388;2022-10-16T15:00:25;5.53;;;3.77;;
10554;SDS011;5326;51.522;7.388;2022-10-16T15:02:52;4.10;;;2.20;;
10554;SDS011;5326;51.522;7.388;2022-10-16T15:07:53;6.10;;;1.80;;
10554;SDS011;5326;51.522;7.388;2022-10-16T15:10:22;4.13;;;2.47;;
10554;SDS011;5326;51.522;7.388;2022-10-16T15:12:49;5.07;;;2.80;;
10554;SDS011;5326;51.522;7.388;2022-10-16T15:15:35;3.27;;;2.30;;
10554;SDS011;5326;51.522;7.388;2022-10-16T15:18:03;5.40;;;2.70;;
10554;SDS011;5326;51.522;7.388;2022-10-16T15:20:32;14.63;;;3.20;;
10554;SDS011;5326;51.522;7.388;2022-10-16T15:23:10;3.40;;;2.13;;
10554;SDS011;5326;51.522;7.388;2022-10-16T15:25:50;3.97;;;2.87;;
10554;SDS011;5326;51.522;7.388;2022-10-16T15:28:19;5.47;;;3.03;;
10554;SDS011;5326;51.522;7.388;2022-10-16T15:30:46;3.33;;;2.70;;
10554;SDS011;5326;51.522;7.388;2022-10-16T15:33:16;8.73;;;5.57;;
10554;SDS011;5326;51.522;7.388;2022-10-16T15:35:48;6.73;;;5.57;;
10554;SDS011;5326;51.522;7.388;2022-10-16T15:38:15;4.27;;;2.17;;
10554;SDS011;5326;51.522;7.388;2022-10-16T15:40:42;5.50;;;2.30;;
10554;SDS011;5326;51.522;7.388;2022-10-16T15:43:09;4.80;;;3.20;;
10554;SDS011;5326;51.522;7.388;2022-10-16T15:45:37;7.83;;;5.40;;
10554;SDS011;5326;51.522;7.388;2022-10-16T15:48:03;9.10;;;6.50;;
10554;SDS011;5326;51.522;7.388;2022-10-16T15:50:30;8.17;;;7.07;;
10554;SDS011;5326;51.522;7.388;2022-10-16T15:52:58;8.37;;;6.77;;
10554;SDS011;5326;51.522;7.388;2022-10-16T15:55:24;11.37;;;5.53;;
10554;SDS011;5326;51.522;7.388;2022-10-16T15:57:51;11.27;;;7.30;;
10554;SDS011;5326;51.522;7.388;2022-10-16T16:00:18;13.23;;;7.20;;
10554;SDS011;5326;51.522;7.388;2022-10-16T16:02:51;9.20;;;6.10;;
10554;SDS011;5326;51.522;7.388;2022-10-16T16:05:19;9.83;;;5.73;;
10554;SDS011;5326;51.522;7.388;2022-10-16T16:07:47;12.17;;;6.37;;
10554;SDS011;5326;51.522;7.388;2022-10-16T16:10:14;10.27;;;5.97;;
10554;SDS011;5326;51.522;7.388;2022-10-16T16:12:41;6.97;;;4.07;;
10554;SDS011;5326;51.522;7.388;2022-10-16T16:15:08;7.70;;;4.57;;
10554;SDS011;5326;51.522;7.388;2022-10-16T16:17:36;5.40;;;3.83;;
10554;SDS011;5326;51.522;7.388;2022-10-16T16:20:03;7.40;;;4.30;;
10554;SDS011;5326;51.522;7.388;2022-10-16T16:22:31;5.73;;;3.40;;
10554;SDS011;5326;51.522;7.388;2022-10-16T16:24:57;6.07;;;3.23;;
10554;SDS011;5326;51.522;7.388;2022-10-16T16:27:24;6.60;;;4.20;;
10554;SDS011;5326;51.522;7.388;2022-10-16T16:29:52;6.27;;;5.07;;
10554;SDS011;5326;51.522;7.388;2022-10-16T16:32:19;10.63;;;7.23;;
10554;SDS011;5326;51.522;7.388;2022-10-16T16:34:46;8.63;;;4.90;;
10554;SDS011;5326;51.522;7.388;2022-10-16T16:37:13;6.20;;;3.13;;
10554;SDS011;5326;51.522;7.388;2022-10-16T16:39:39;9.63;;;5.93;;
10554;SDS011;5326;51.522;7.388;2022-10-16T16:42:06;7.50;;;4.80;;
10554;SDS011;5326;51.522;7.388;2022-10-16T16:44:33;6.17;;;4.77;;
10554;SDS011;5326;51.522;7.388;2022-10-16T16:47:03;7.20;;;5.00;;
10554;SDS011;5326;51.522;7.388;2022-10-16T16:49:30;5.97;;;4.80;;
10554;SDS011;5326;51.522;7.388;2022-10-16T16:51:57;6.17;;;3.93;;
10554;SDS011;5326;51.522;7.388;2022-10-16T16:54:23;6.43;;;4.53;;
10554;SDS011;5326;51.522;7.388;2022-10-16T16:56:50;8.80;;;4.50;;
10554;SDS011;5326;51.522;7.388;2022-10-16T16:59:18;8.10;;;4.50;;
10554;SDS011;5326;51.522;7.388;2022-10-16T17:01:46;8.47;;;5.67;;
10554;SDS011;5326;51.522;7.388;2022-10-16T17:04:17;10.67;;;6.83;;
10554;SDS011;5326;51.522;7.388;2022-10-16T17:06:45;13.37;;;7.83;;
10554;SDS011;5326;51.522;7.388;2022-10-16T17:09:11;9.97;;;7.30;;
10554;SDS011;5326;51.522;7.388;2022-10-16T17:11:39;7.70;;;5.30;;
10554;SDS011;5326;51.522;7.388;2022-10-16T17:14:10;7.27;;;4.73;;
10554;SDS011;5326;51.522;7.388;2022-10-16T17:16:38;7.07;;;4.77;;
10554;SDS011;5326;51.522;7.388;2022-10-16T17:19:06;10.93;;;7.70;;
10554;SDS011;5326;51.522;7.388;2022-10-16T17:21:34;11.47;;;8.13;;
10554;SDS011;5326;51.522;7.388;2022-10-16T17:24:02;7.53;;;5.90;;
10554;SDS011;5326;51.522;7.388;2022-10-16T17:26:29;6.13;;;4.07;;
10554;SDS011;5326;51.522;7.388;2022-10-16T17:28:57;10.20;;;5.40;;